American Lake, Washington
Current Conditions -  °F | °C
As of 8:58 PM on Tuesday 25 Nov 2014 (Local Time) from KGRF Reporting Station
Drizzle Drizzle  
Wind Chill: 56°   Ceiling: 4700
Heat Index: 56°   Visibility: 10mi
Dew Point: 55°   Wind: 14mph
Humidity: 99%   Direction: 170°S
Pressure: 30.19"   Gusts: 18mph
Location:  47.1451°N, 122.578°W
Report Text: KGRF 260458Z AUTO 17012G16KT 10SM DZ FEW030 SCT035 BKN047 OVC060 13/13 A3019 RMK AO2 SLP228 P0000 T01320130 $
Loading
Personal Weather Stations






























Interactive Weather Map New forecast layout! Learn more

10-Day Weather Forecast

Advertisements
Track Severe Weather on mobile